Time;durP1;ratioP1;P1;durP2;ratioP2;P2;SDS_P1;SDS_P2;PMS_P1;PMS_P2;Temp;Humidity;BMP_temperature;BMP_pressure;BME280_temperature;BME280_humidity;BME280_pressure;Samples;Min_cycle;Max_cycle;Signal;HPM_P1;HPM_P2
2023/08/25 04:30:31;;;;;;;0.10;0.10;;;19.90;72.60;;;;;;5918200;23;20054;-82
2023/08/25 04:32:57;;;;;;;0.10;0.10;;;19.80;72.20;;;;;;4973757;28;20047;-81
2023/08/25 04:35:22;;;;;;;0.00;0.00;;;19.70;72.70;;;;;;4976815;28;20034;-81
2023/08/25 04:37:48;;;;;;;0.20;0.10;;;19.60;72.90;;;;;;4977312;28;20037;-81
2023/08/25 04:40:18;;;;;;;0.00;0.00;;;19.60;72.40;;;;;;4976037;28;20089;-81
2023/08/25 04:42:43;;;;;;;0.00;0.00;;;19.70;72.40;;;;;;4976067;28;20382;-81
2023/08/25 04:45:10;;;;;;;0.00;0.00;;;19.70;72.40;;;;;;4976829;28;20081;-82
2023/08/25 04:47:37;;;;;;;0.00;0.00;;;19.70;72.20;;;;;;4977073;28;20050;-81
2023/08/25 04:50:03;;;;;;;0.00;0.00;;;19.60;72.00;;;;;;4976952;28;20046;-81
2023/08/25 04:52:30;;;;;;;0.00;0.00;;;19.50;72.20;;;;;;4976787;28;20122;-81
2023/08/25 04:54:55;;;;;;;0.00;0.00;;;19.40;72.50;;;;;;4976992;28;20402;-81
2023/08/25 04:57:22;;;;;;;0.20;0.00;;;19.50;72.30;;;;;;4977063;28;20022;-81
2023/08/25 04:59:47;;;;;;;0.00;0.00;;;19.50;72.40;;;;;;4976577;28;20169;-81
2023/08/25 05:02:14;;;;;;;0.00;0.00;;;19.30;72.50;;;;;;4975430;28;20066;-81
2023/08/25 05:04:39;;;;;;;0.00;0.00;;;19.30;72.60;;;;;;4992467;28;20030;-81
2023/08/25 05:07:05;;;;;;;0.00;0.00;;;19.30;72.60;;;;;;4992361;28;20042;-82
2023/08/25 05:09:31;;;;;;;0.00;0.00;;;19.40;72.20;;;;;;4992458;28;20133;-81
2023/08/25 05:11:56;;;;;;;0.10;0.10;;;19.40;72.30;;;;;;4961724;28;20136;-82
2023/08/25 05:14:22;;;;;;;0.00;0.00;;;19.30;72.40;;;;;;4957754;29;20058;-81
2023/08/25 05:16:48;;;;;;;0.00;0.00;;;19.30;72.40;;;;;;4957758;29;20101;-82
2023/08/25 05:19:13;;;;;;;0.00;0.00;;;19.30;72.40;;;;;;4959673;28;20609;-82
2023/08/25 05:21:40;;;;;;;0.05;0.05;;;19.30;72.40;;;;;;4977112;28;20027;-82
2023/08/25 05:24:24;;;;;;;0.00;0.00;;;19.30;72.10;;;;;;4976843;28;20076;-82
2023/08/25 05:26:53;;;;;;;0.10;0.10;;;19.30;71.70;;;;;;4968009;28;20401;-81
2023/08/25 05:29:24;;;;;;;0.03;0.03;;;19.30;71.70;;;;;;4957473;28;20092;-82
2023/08/25 05:31:50;;;;;;;0.00;0.00;;;19.30;71.80;;;;;;4957343;28;20453;-82
2023/08/25 05:34:16;;;;;;;0.00;0.00;;;19.40;71.50;;;;;;4971688;28;20420;-82
2023/08/25 05:36:42;;;;;;;0.10;0.10;;;19.40;71.30;;;;;;4975067;28;20134;-82
2023/08/25 05:39:08;;;;;;;0.00;0.00;;;19.40;71.20;;;;;;4976647;28;20126;-81
2023/08/25 05:41:34;;;;;;;0.10;0.10;;;19.40;71.30;;;;;;4990884;28;20062;-81
2023/08/25 05:44:00;;;;;;;0.00;0.00;;;19.40;71.30;;;;;;4976612;28;20031;-81
2023/08/25 05:46:26;;;;;;;0.00;0.00;;;19.40;71.30;;;;;;4976140;28;20023;-81
2023/08/25 05:48:52;;;;;;;0.00;0.00;;;19.50;71.30;;;;;;4975913;28;20035;-82
2023/08/25 05:51:18;;;;;;;0.00;0.00;;;19.50;71.30;;;;;;4976494;28;20039;-81
2023/08/25 05:53:44;;;;;;;0.00;0.00;;;19.50;71.20;;;;;;4975514;28;20035;-81
2023/08/25 05:56:10;;;;;;;0.00;0.00;;;19.50;71.20;;;;;;4991405;28;20050;-81
2023/08/25 05:58:35;;;;;;;0.10;0.10;;;19.40;71.40;;;;;;4975618;28;20074;-82
2023/08/25 06:01:01;;;;;;;0.00;0.00;;;19.40;71.30;;;;;;4976260;28;20113;-82
2023/08/25 06:03:27;;;;;;;0.08;0.08;;;19.40;71.40;;;;;;4974845;28;20027;-82
2023/08/25 06:05:53;;;;;;;0.00;0.00;;;19.40;71.50;;;;;;4957818;28;20074;-82
2023/08/25 06:08:22;;;;;;;0.00;0.00;;;19.40;71.40;;;;;;4956164;28;20071;-82
2023/08/25 06:10:49;;;;;;;0.05;0.05;;;19.40;71.40;;;;;;4959314;28;20027;-82
2023/08/25 06:13:15;;;;;;;0.00;0.00;;;19.30;71.70;;;;;;4956870;28;20043;-82
2023/08/25 06:15:40;;;;;;;0.00;0.00;;;19.40;71.80;;;;;;4957455;28;20027;-82
2023/08/25 06:18:06;;;;;;;0.00;0.00;;;19.50;71.80;;;;;;4956674;29;20027;-82
2023/08/25 06:20:32;;;;;;;0.10;0.10;;;19.60;71.80;;;;;;4968292;28;20031;-82
2023/08/25 06:22:58;;;;;;;0.00;0.00;;;19.60;71.40;;;;;;4974331;28;20027;-82
2023/08/25 06:25:24;;;;;;;0.00;0.00;;;19.60;71.30;;;;;;4976143;28;20037;-81
2023/08/25 06:27:50;;;;;;;0.05;0.05;;;19.60;71.10;;;;;;4975551;28;20045;-82
2023/08/25 06:30:17;;;;;;;0.10;0.10;;;19.50;71.40;;;;;;4961829;28;20031;-81
2023/08/25 06:32:45;;;;;;;0.10;0.10;;;19.50;71.60;;;;;;4958614;28;20062;-82
2023/08/25 06:35:14;;;;;;;0.00;0.00;;;19.40;71.60;;;;;;4966682;28;20082;-79
2023/08/25 06:37:40;;;;;;;0.00;0.00;;;19.60;71.60;;;;;;4968297;28;20023;-80
2023/08/25 06:40:08;;;;;;;0.10;0.10;;;19.60;71.50;;;;;;4971490;28;20041;-83
2023/08/25 06:42:35;;;;;;;0.10;0.10;;;19.80;71.20;;;;;;4970322;28;20449;-83
2023/08/25 06:45:00;;;;;;;0.00;0.00;;;19.80;70.80;;;;;;4963983;28;20033;-82
2023/08/25 06:47:27;;;;;;;0.00;0.00;;;19.80;70.70;;;;;;4956078;29;20515;-81
2023/08/25 06:49:54;;;;;;;0.00;0.00;;;19.70;70.80;;;;;;4956148;28;20473;-82
2023/08/25 06:52:21;;;;;;;0.10;0.10;;;19.70;70.70;;;;;;4971823;28;20042;-82
2023/08/25 06:54:47;;;;;;;0.00;0.00;;;19.70;70.70;;;;;;4973671;28;20034;-81
2023/08/25 06:57:12;;;;;;;0.00;0.00;;;19.70;70.60;;;;;;4973531;28;20039;-82
2023/08/25 06:59:38;;;;;;;0.10;0.10;;;19.60;70.20;;;;;;4968289;28;20030;-79
2023/08/25 07:02:04;;;;;;;0.00;0.00;;;19.50;70.20;;;;;;4975062;28;20030;-79
2023/08/25 07:04:48;;;;;;;0.00;0.00;;;19.40;70.30;;;;;;4974586;28;20820;-79
2023/08/25 07:07:14;;;;;;;0.00;0.00;;;19.40;70.20;;;;;;4974520;28;20090;-79
2023/08/25 07:09:39;;;;;;;0.00;0.00;;;19.40;70.30;;;;;;4971409;28;20453;-79
2023/08/25 07:12:06;;;;;;;0.10;0.10;;;19.40;69.80;;;;;;4963784;28;20030;-79
2023/08/25 07:14:32;;;;;;;0.10;0.10;;;19.40;69.80;;;;;;4962999;28;20053;-80
2023/08/25 07:16:58;;;;;;;0.00;0.00;;;19.30;69.60;;;;;;4969770;28;20022;-80
2023/08/25 07:19:23;;;;;;;0.05;0.05;;;19.50;69.10;;;;;;4969094;28;20041;-80
2023/08/25 07:21:49;;;;;;;0.05;0.05;;;19.60;68.40;;;;;;4976650;28;20051;-80
2023/08/25 07:24:14;;;;;;;0.10;0.10;;;19.80;67.70;;;;;;4973957;28;20030;-80
2023/08/25 07:26:40;;;;;;;0.05;0.05;;;20.00;67.80;;;;;;4971626;28;20035;-83
2023/08/25 07:29:06;;;;;;;0.10;0.10;;;20.10;67.20;;;;;;4964489;28;20031;-81
2023/08/25 07:31:32;;;;;;;0.00;0.00;;;20.40;66.90;;;;;;4966439;28;20129;-81
2023/08/25 07:33:58;;;;;;;0.05;0.05;;;20.60;65.50;;;;;;4969668;28;20023;-81
2023/08/25 07:36:24;;;;;;;0.00;0.00;;;20.50;64.90;;;;;;4970539;28;20038;-81
2023/08/25 07:38:50;;;;;;;0.00;0.00;;;20.50;64.10;;;;;;4956600;28;20118;-82
2023/08/25 07:41:20;;;;;;;0.10;0.10;;;20.30;64.20;;;;;;4961920;28;20058;-80
2023/08/25 07:43:46;;;;;;;0.10;0.10;;;20.30;64.50;;;;;;4961586;28;20054;-79
2023/08/25 07:46:13;;;;;;;0.10;0.10;;;20.30;64.20;;;;;;4953733;28;20027;-76
2023/08/25 07:48:38;;;;;;;0.00;0.00;;;20.40;64.00;;;;;;4978244;28;20095;-78
2023/08/25 07:51:04;;;;;;;0.10;0.10;;;20.30;62.50;;;;;;4963717;28;20930;-78
2023/08/25 07:53:31;;;;;;;0.20;0.08;;;20.20;62.40;;;;;;4965886;28;20715;-78
2023/08/25 07:55:58;;;;;;;0.10;0.10;;;20.40;62.60;;;;;;4958365;28;20027;-80
2023/08/25 07:58:24;;;;;;;0.00;0.00;;;21.00;61.20;;;;;;4961648;28;20062;-77
2023/08/25 08:00:50;;;;;;;0.10;0.10;;;22.20;55.90;;;;;;4956871;28;20058;-76
2023/08/25 08:03:16;;;;;;;0.10;0.10;;;23.50;53.30;;;;;;4970811;28;20038;-76
2023/08/25 08:05:42;;;;;;;0.10;0.10;;;24.30;52.10;;;;;;4965848;28;20039;-77
2023/08/25 08:08:09;;;;;;;0.10;0.10;;;25.10;49.80;;;;;;4953768;28;20081;-77
2023/08/25 08:10:36;;;;;;;0.10;0.10;;;26.10;47.40;;;;;;4962469;28;20041;-77
2023/08/25 08:13:02;;;;;;;0.20;0.20;;;27.30;44.80;;;;;;4968563;28;20022;-77
2023/08/25 08:15:30;;;;;;;0.28;0.28;;;28.80;42.40;;;;;;4962324;28;20390;-78
2023/08/25 08:17:56;;;;;;;0.30;0.30;;;29.50;38.20;;;;;;4961184;28;20038;-78
2023/08/25 08:20:23;;;;;;;0.30;0.30;;;28.70;39.30;;;;;;4957814;28;20520;-79
2023/08/25 08:22:49;;;;;;;0.40;0.40;;;29.00;39.60;;;;;;4959734;28;20023;-79
2023/08/25 08:25:19;;;;;;;0.38;0.38;;;29.30;40.20;;;;;;4961671;28;20730;-79
2023/08/25 08:27:45;;;;;;;0.30;0.30;;;28.80;40.40;;;;;;4963763;28;20046;-78
2023/08/25 08:30:13;;;;;;;0.20;0.20;;;28.20;42.60;;;;;;4968895;28;20023;-78
2023/08/25 08:32:39;;;;;;;0.00;0.00;;;27.80;41.50;;;;;;4965064;28;20022;-78
2023/08/25 08:35:09;;;;;;;0.00;0.00;;;27.30;43.40;;;;;;4968517;28;20449;-78
2023/08/25 08:37:36;;;;;;;0.00;0.00;;;26.70;43.80;;;;;;4959380;28;20106;-77
2023/08/25 08:40:05;;;;;;;0.00;0.00;;;26.80;43.60;;;;;;4956199;28;20038;-77
2023/08/25 08:42:33;;;;;;;0.30;0.30;;;27.00;43.60;;;;;;4962922;28;20023;-77
2023/08/25 08:45:04;;;;;;;0.00;0.00;;;27.80;41.90;;;;;;4968852;28;20066;-77
2023/08/25 08:47:31;;;;;;;0.40;0.40;;;27.50;42.30;;;;;;4969855;28;20030;-79
2023/08/25 08:49:58;;;;;;;0.20;0.20;;;27.80;42.50;;;;;;4974318;28;20613;-79
2023/08/25 08:52:25;;;;;;;0.00;0.00;;;28.50;41.50;;;;;;4971184;28;20916;-79
2023/08/25 08:54:50;;;;;;;0.00;0.00;;;27.50;42.20;;;;;;4973331;28;20066;-79
2023/08/25 08:57:17;;;;;;;0.00;0.00;;;26.80;43.50;;;;;;4966631;28;20050;-78
2023/08/25 08:59:44;;;;;;;0.00;0.00;;;25.80;44.80;;;;;;4966704;28;20117;-78
2023/08/25 09:02:13;;;;;;;0.00;0.00;;;25.30;45.80;;;;;;4966012;28;20100;-77
2023/08/25 09:04:40;;;;;;;0.00;0.00;;;25.60;45.90;;;;;;4962515;28;20023;-80
2023/08/25 09:07:07;;;;;;;0.00;0.00;;;25.90;44.50;;;;;;4965458;28;20049;-76
2023/08/25 09:09:33;;;;;;;0.00;0.00;;;26.00;45.20;;;;;;4983001;28;20046;-77
2023/08/25 09:11:58;;;;;;;0.00;0.00;;;26.00;44.10;;;;;;4965707;28;20038;-84
2023/08/25 09:14:27;;;;;;;0.00;0.00;;;26.00;44.40;;;;;;4966672;28;20034;-86
2023/08/25 09:16:59;;;;;;;0.00;0.00;;;25.70;44.60;;;;;;4972120;28;20051;-82
2023/08/25 09:19:28;;;;;;;0.10;0.10;;;26.20;44.30;;;;;;4962078;28;20042;-82
2023/08/25 09:21:53;;;;;;;0.00;0.00;;;27.20;43.30;;;;;;4991461;28;20033;-80
2023/08/25 09:24:21;;;;;;;0.00;0.00;;;26.90;42.70;;;;;;4968140;28;20027;-83
2023/08/25 09:26:47;;;;;;;0.20;0.20;;;26.20;43.50;;;;;;4969827;28;20026;-83
2023/08/25 09:29:13;;;;;;;0.40;0.40;;;26.50;43.40;;;;;;4970437;28;20105;-84
2023/08/25 09:31:38;;;;;;;0.00;0.00;;;27.50;41.50;;;;;;4965409;28;20047;-87
2023/08/25 09:34:09;;;;;;;0.00;0.00;;;27.40;41.40;;;;;;4965229;28;20220;-87
2023/08/25 09:36:52;;;;;;;0.00;0.00;;;26.90;43.20;;;;;;4967030;28;20031;-86
2023/08/25 09:39:19;;;;;;;0.00;0.00;;;26.30;42.20;;;;;;4961259;28;20050;-85
2023/08/25 09:41:46;;;;;;;0.00;0.00;;;26.30;43.80;;;;;;4965654;28;20117;-86
2023/08/25 09:44:12;;;;;;;0.00;0.00;;;26.10;44.50;;;;;;4962239;28;20023;-85
2023/08/25 09:46:57;;;;;;;0.00;0.00;;;26.10;44.70;;;;;;4976882;28;20035;-86
2023/08/25 09:49:23;;;;;;;0.00;0.00;;;25.80;45.20;;;;;;4969831;28;20030;-84
2023/08/25 09:51:52;;;;;;;0.00;0.00;;;25.40;46.20;;;;;;4962564;28;20050;-86
2023/08/25 09:54:18;;;;;;;0.00;0.00;;;25.20;46.00;;;;;;4964572;28;20031;-84
2023/08/25 09:56:47;;;;;;;0.10;0.10;;;25.30;46.00;;;;;;4968734;28;20493;-84
2023/08/25 09:59:14;;;;;;;0.00;0.00;;;25.20;45.40;;;;;;4966436;28;20035;-85
2023/08/25 10:01:43;;;;;;;0.00;0.00;;;25.00;45.30;;;;;;4969290;28;20019;-85
2023/08/25 10:04:09;;;;;;;0.00;0.00;;;24.90;45.00;;;;;;4972288;28;20027;-85
2023/08/25 10:06:39;;;;;;;0.00;0.00;;;24.80;45.50;;;;;;4969623;28;20106;-86
2023/08/25 10:09:07;;;;;;;0.03;0.03;;;24.70;46.40;;;;;;4962174;28;20095;-82
2023/08/25 10:11:48;;;;;;;0.00;0.00;;;24.70;46.90;;;;;;4965217;28;20027;-90
2023/08/25 10:14:14;;;;;;;0.00;0.00;;;24.90;46.00;;;;;;4976459;28;20470;-81
2023/08/25 10:16:52;;;;;;;0.00;0.00;;;25.00;47.10;;;;;;4960660;28;20380;-82
2023/08/25 10:19:27;;;;;;;0.00;0.00;;;25.20;48.20;;;;;;4969851;28;20055;-84
2023/08/25 10:21:55;;;;;;;0.10;0.10;;;25.10;48.00;;;;;;4956834;28;20037;-82
2023/08/25 10:24:25;;;;;;;0.05;0.05;;;25.20;47.10;;;;;;4964686;28;20030;-82
2023/08/25 10:26:52;;;;;;;0.10;0.10;;;25.20;47.50;;;;;;4972887;28;20023;-79
2023/08/25 10:29:20;;;;;;;0.10;0.10;;;25.60;46.60;;;;;;4979867;28;20035;-79
2023/08/25 10:31:51;;;;;;;0.00;0.00;;;25.80;45.30;;;;;;4979070;28;20057;-80
2023/08/25 10:34:43;;;;;;;0.00;0.00;;;26.00;45.80;;;;;;4977062;28;20039;-76
2023/08/25 10:37:13;;;;;;;0.00;0.00;;;25.70;44.80;;;;;;4960340;28;20038;-77
2023/08/25 10:39:48;;;;;;;0.00;0.00;;;25.20;45.50;;;;;;4958100;29;20510;-77
2023/08/25 10:42:27;;;;;;;0.00;0.00;;;25.00;46.20;;;;;;4960249;28;20058;-77
2023/08/25 10:45:01;;;;;;;0.00;0.00;;;24.90;46.60;;;;;;4959910;28;20035;-77
2023/08/25 10:47:27;;;;;;;0.00;0.00;;;24.80;47.10;;;;;;4958973;28;20106;-78
2023/08/25 10:50:00;;;;;;;0.00;0.00;;;24.80;47.50;;;;;;4962379;28;20027;-77
2023/08/25 10:52:26;;;;;;;0.00;0.00;;;24.80;47.00;;;;;;4976430;28;20389;-78
2023/08/25 10:54:53;;;;;;;0.00;0.00;;;24.90;47.80;;;;;;4969397;28;20054;-77
2023/08/25 10:57:27;;;;;;;0.00;0.00;;;25.20;47.30;;;;;;4992053;28;20563;-81
2023/08/25 11:00:17;;;;;;;0.00;0.00;;;25.30;46.00;;;;;;4991742;28;20034;-80
2023/08/25 11:02:43;;;;;;;0.00;0.00;;;25.10;46.10;;;;;;4975947;28;20043;-82
2023/08/25 11:05:33;;;;;;;0.00;0.00;;;24.80;46.70;;;;;;4967944;28;20059;-77
2023/08/25 11:08:03;;;;;;;0.00;0.00;;;24.60;47.90;;;;;;4981071;28;20042;-81
2023/08/25 11:10:33;;;;;;;0.00;0.00;;;24.50;47.70;;;;;;4992061;28;20030;-84
2023/08/25 11:13:00;;;;;;;0.00;0.00;;;24.30;48.20;;;;;;4979295;28;20085;-81
2023/08/25 11:15:26;;;;;;;0.00;0.00;;;24.20;48.50;;;;;;4979224;28;20035;-81
2023/08/25 11:17:53;;;;;;;0.00;0.00;;;24.20;48.00;;;;;;4971004;28;20054;-79
2023/08/25 11:20:18;;;;;;;0.08;0.08;;;24.30;47.90;;;;;;4964139;28;20548;-79
2023/08/25 11:22:51;;;;;;;0.10;0.10;;;24.70;48.10;;;;;;4964121;28;20035;-79
2023/08/25 11:25:17;;;;;;;0.00;0.00;;;24.80;46.00;;;;;;4979197;28;20119;-79
2023/08/25 11:27:47;;;;;;;0.00;0.00;;;25.00;45.30;;;;;;4972683;28;20130;-79
2023/08/25 11:30:13;;;;;;;0.00;0.00;;;25.10;45.40;;;;;;4962827;28;20050;-79
2023/08/25 11:32:39;;;;;;;0.00;0.00;;;24.90;45.40;;;;;;4960463;28;20035;-79
2023/08/25 11:35:05;;;;;;;0.10;0.10;;;24.80;45.90;;;;;;4963698;28;20478;-79
2023/08/25 11:37:31;;;;;;;0.00;0.00;;;24.80;46.20;;;;;;4961818;28;20031;-80
2023/08/25 11:39:57;;;;;;;0.08;0.08;;;24.70;46.70;;;;;;4964479;28;20058;-79
2023/08/25 11:42:23;;;;;;;0.00;0.00;;;24.50;46.80;;;;;;4966399;28;20030;-79
2023/08/25 11:44:50;;;;;;;0.10;0.10;;;24.30;46.50;;;;;;4962366;28;20572;-80
2023/08/25 11:47:16;;;;;;;0.00;0.00;;;24.40;46.40;;;;;;4961395;28;21106;-79
2023/08/25 11:49:42;;;;;;;0.00;0.00;;;24.60;44.60;;;;;;4963759;28;20027;-80
2023/08/25 11:52:08;;;;;;;0.00;0.00;;;24.60;44.40;;;;;;4964143;28;20046;-79
2023/08/25 11:54:48;;;;;;;0.00;0.00;;;24.60;46.50;;;;;;4964629;28;20031;-80
2023/08/25 11:57:14;;;;;;;0.00;0.00;;;24.60;44.80;;;;;;4982301;28;20027;-80
2023/08/25 11:59:46;;;;;;;0.00;0.00;;;24.50;44.50;;;;;;4960256;28;20039;-80
2023/08/25 12:02:16;;;;;;;0.00;0.00;;;24.40;44.80;;;;;;4977496;28;20027;-80
2023/08/25 12:04:53;;;;;;;0.10;0.10;;;24.50;45.10;;;;;;4968422;28;20035;-79
2023/08/25 12:07:23;;;;;;;0.05;0.05;;;24.70;44.90;;;;;;4971900;28;20031;-79
2023/08/25 12:10:06;;;;;;;0.10;0.10;;;24.80;44.90;;;;;;4974056;28;20035;-79
2023/08/25 12:12:37;;;;;;;0.00;0.00;;;24.90;44.70;;;;;;4970897;28;20082;-79
2023/08/25 12:15:07;;;;;;;0.00;0.00;;;25.10;43.60;;;;;;4965294;28;20074;-79
2023/08/25 12:17:34;;;;;;;0.00;0.00;;;24.90;43.70;;;;;;4966617;28;20029;-80
2023/08/25 12:20:09;;;;;;;0.00;0.00;;;24.80;42.90;;;;;;4969418;28;20042;-80
2023/08/25 12:22:35;;;;;;;0.08;0.08;;;24.90;43.00;;;;;;4971187;28;20054;-79
2023/08/25 12:25:00;;;;;;;0.00;0.00;;;25.20;43.00;;;;;;4969625;28;20035;-80
2023/08/25 12:27:26;;;;;;;0.00;0.00;;;25.30;43.30;;;;;;4973991;28;20061;-80
2023/08/25 12:29:52;;;;;;;0.08;0.08;;;25.30;43.00;;;;;;4965729;28;20023;-79
2023/08/25 12:32:17;;;;;;;0.10;0.10;;;25.30;43.00;;;;;;4960937;28;20044;-80
2023/08/25 12:34:43;;;;;;;0.05;0.05;;;25.30;43.20;;;;;;4961774;28;20069;-80
2023/08/25 12:37:08;;;;;;;0.10;0.10;;;25.50;42.00;;;;;;4960370;28;20114;-79
2023/08/25 12:39:34;;;;;;;0.10;0.10;;;25.50;42.20;;;;;;4985877;28;20023;-79
2023/08/25 12:42:00;;;;;;;0.00;0.00;;;25.60;41.50;;;;;;4961053;28;20686;-80
2023/08/25 12:44:25;;;;;;;0.10;0.10;;;25.50;42.50;;;;;;4962492;28;20027;-80
2023/08/25 12:46:51;;;;;;;0.10;0.10;;;25.50;41.30;;;;;;4961371;28;20070;-80
2023/08/25 12:49:16;;;;;;;0.10;0.10;;;25.70;41.40;;;;;;4963785;28;20015;-80
2023/08/25 12:51:42;;;;;;;0.00;0.00;;;25.70;42.40;;;;;;4975432;28;20039;-75
2023/08/25 12:54:15;;;;;;;0.03;0.03;;;25.60;41.80;;;;;;4966320;28;20119;-77
2023/08/25 12:56:44;;;;;;;0.00;0.00;;;25.30;42.80;;;;;;4969126;28;20091;-86
2023/08/25 12:59:10;;;;;;;0.10;0.10;;;25.50;42.70;;;;;;4964869;28;20091;-82
2023/08/25 13:01:35;;;;;;;0.10;0.10;;;25.70;41.80;;;;;;4970940;28;20045;-83
2023/08/25 13:04:01;;;;;;;0.00;0.00;;;25.60;41.50;;;;;;4973337;28;20027;-91
2023/08/25 13:06:27;;;;;;;0.00;0.00;;;25.30;41.80;;;;;;4972861;28;20041;-81
2023/08/25 13:08:53;;;;;;;0.00;0.00;;;25.30;41.30;;;;;;4974769;28;20122;-80
2023/08/25 13:11:18;;;;;;;0.00;0.00;;;25.30;41.60;;;;;;4968459;28;20038;-81
2023/08/25 13:13:44;;;;;;;0.00;0.00;;;25.10;42.20;;;;;;4989142;28;20082;-88
2023/08/25 13:16:10;;;;;;;0.10;0.10;;;24.90;42.50;;;;;;4970609;28;20468;-82
2023/08/25 13:18:37;;;;;;;0.00;0.00;;;24.70;42.30;;;;;;4973139;28;20027;-84
2023/08/25 13:21:03;;;;;;;0.00;0.00;;;24.50;42.80;;;;;;4967771;28;20039;-82
2023/08/25 13:23:30;;;;;;;0.05;0.05;;;24.60;42.70;;;;;;4968226;28;20027;-85
2023/08/25 13:25:55;;;;;;;0.00;0.00;;;24.90;42.20;;;;;;4973086;28;20448;-81
2023/08/25 13:28:21;;;;;;;0.00;0.00;;;25.00;41.90;;;;;;4972041;28;20030;-81
2023/08/25 13:30:49;;;;;;;0.00;0.00;;;25.30;42.30;;;;;;4978108;28;20544;-82
2023/08/25 13:33:15;;;;;;;0.10;0.10;;;25.50;43.30;;;;;;4967028;28;20030;-84
2023/08/25 13:35:40;;;;;;;0.00;0.00;;;25.60;42.10;;;;;;4973056;28;20031;-82
2023/08/25 13:38:06;;;;;;;0.15;0.10;;;25.50;41.20;;;;;;4959565;28;20027;-81
2023/08/25 13:40:32;;;;;;;0.00;0.00;;;25.40;42.50;;;;;;4962571;28;20038;-81
2023/08/25 13:42:57;;;;;;;0.00;0.00;;;25.50;40.60;;;;;;4963497;28;20051;-81
2023/08/25 13:45:23;;;;;;;0.00;0.00;;;25.80;42.00;;;;;;4958825;28;20027;-81
2023/08/25 13:47:49;;;;;;;0.00;0.00;;;25.90;39.80;;;;;;4960202;28;20534;-81
2023/08/25 13:50:14;;;;;;;0.00;0.00;;;25.80;40.40;;;;;;4965900;28;20020;-81
2023/08/25 13:52:40;;;;;;;0.00;0.00;;;25.60;39.70;;;;;;4958096;28;20066;-81
2023/08/25 13:55:06;;;;;;;0.10;0.10;;;25.50;40.60;;;;;;4958671;28;20028;-81
2023/08/25 13:57:31;;;;;;;0.15;0.10;;;25.40;41.00;;;;;;4959231;28;20027;-81
2023/08/25 13:59:58;;;;;;;0.00;0.00;;;25.30;41.40;;;;;;4959318;28;20058;-81
2023/08/25 14:02:24;;;;;;;0.00;0.00;;;25.10;40.80;;;;;;4959413;28;20023;-81
2023/08/25 14:04:50;;;;;;;0.03;0.03;;;24.90;41.80;;;;;;4978907;28;20510;-81
2023/08/25 14:07:16;;;;;;;0.00;0.00;;;24.90;42.40;;;;;;4972060;28;20027;-81
2023/08/25 14:09:41;;;;;;;0.10;0.10;;;24.90;43.00;;;;;;4969251;28;20031;-81
2023/08/25 14:12:07;;;;;;;0.00;0.00;;;24.90;42.30;;;;;;4972306;28;20026;-80
2023/08/25 14:14:33;;;;;;;0.00;0.00;;;25.00;43.20;;;;;;4981220;28;20042;-81
2023/08/25 14:17:01;;;;;;;0.00;0.00;;;25.00;41.60;;;;;;4960519;28;20027;-83
2023/08/25 14:19:27;;;;;;;0.00;0.00;;;25.10;42.10;;;;;;4967634;28;20034;-82
2023/08/25 14:21:52;;;;;;;0.00;0.00;;;25.20;41.80;;;;;;4974933;28;20027;-79
2023/08/25 14:24:18;;;;;;;0.00;0.00;;;25.20;42.10;;;;;;4962336;28;20065;-85
2023/08/25 14:26:45;;;;;;;0.00;0.00;;;25.10;42.60;;;;;;4966423;28;20086;-83
2023/08/25 14:29:11;;;;;;;0.00;0.00;;;25.10;43.00;;;;;;4964580;28;20027;-83
2023/08/25 14:31:36;;;;;;;0.00;0.00;;;24.90;42.50;;;;;;4958648;28;20532;-80
2023/08/25 14:34:05;;;;;;;0.00;0.00;;;24.90;42.60;;;;;;4972818;28;20027;-82
2023/08/25 14:36:33;;;;;;;0.00;0.00;;;25.10;42.70;;;;;;4959888;28;20027;-83
2023/08/25 14:38:59;;;;;;;0.00;0.00;;;25.20;42.60;;;;;;4967621;28;20543;-81
2023/08/25 14:41:28;;;;;;;0.00;0.00;;;25.20;42.50;;;;;;4960229;28;20572;-81
2023/08/25 14:43:55;;;;;;;0.00;0.00;;;25.30;42.80;;;;;;4957179;28;20038;-81
2023/08/25 14:46:26;;;;;;;0.00;0.00;;;25.30;42.50;;;;;;4960800;28;20027;-81
2023/08/25 14:48:52;;;;;;;0.00;0.00;;;25.30;42.70;;;;;;4977656;28;20030;-81
2023/08/25 14:51:18;;;;;;;0.00;0.00;;;25.30;42.90;;;;;;4966674;28;20278;-81
2023/08/25 14:53:43;;;;;;;0.00;0.00;;;25.30;42.80;;;;;;4962025;28;20122;-82
2023/08/25 14:56:10;;;;;;;0.00;0.00;;;25.00;40.80;;;;;;4967756;28;20023;-80
2023/08/25 14:58:36;;;;;;;0.00;0.00;;;25.00;41.90;;;;;;4966135;28;20062;-81
2023/08/25 15:01:01;;;;;;;0.00;0.00;;;25.00;42.30;;;;;;4965962;28;20615;-81
2023/08/25 15:03:27;;;;;;;0.10;0.10;;;25.10;42.50;;;;;;4969204;28;20033;-81
2023/08/25 15:05:57;;;;;;;0.00;0.00;;;25.50;42.20;;;;;;4970756;28;20054;-81
2023/08/25 15:08:24;;;;;;;0.00;0.00;;;25.40;42.30;;;;;;4967742;28;20122;-80
2023/08/25 15:10:50;;;;;;;0.00;0.00;;;25.30;41.50;;;;;;4947426;28;20393;-81
2023/08/25 15:13:16;;;;;;;0.00;0.00;;;25.10;42.00;;;;;;4970607;28;20034;-80
2023/08/25 15:15:42;;;;;;;0.00;0.00;;;25.00;41.60;;;;;;4968827;28;20051;-80
2023/08/25 15:18:08;;;;;;;0.00;0.00;;;25.20;42.50;;;;;;4969651;28;20043;-81
2023/08/25 15:20:33;;;;;;;0.00;0.00;;;25.20;42.20;;;;;;4960074;28;20090;-78
2023/08/25 15:23:00;;;;;;;0.10;0.10;;;25.20;42.50;;;;;;4955555;28;20024;-79
2023/08/25 15:25:25;;;;;;;0.00;0.00;;;25.30;42.50;;;;;;4963303;28;20042;-79
2023/08/25 15:27:51;;;;;;;0.10;0.00;;;25.20;41.70;;;;;;4970374;28;20023;-80
2023/08/25 15:30:17;;;;;;;0.00;0.00;;;25.10;43.00;;;;;;4962905;28;20023;-80
2023/08/25 15:32:42;;;;;;;0.00;0.00;;;24.90;41.60;;;;;;4973693;28;20493;-80
2023/08/25 15:35:08;;;;;;;0.00;0.00;;;24.80;43.10;;;;;;4965765;28;20766;-80
2023/08/25 15:37:34;;;;;;;0.00;0.00;;;24.80;42.80;;;;;;4960565;28;20023;-79
2023/08/25 15:39:59;;;;;;;0.00;0.00;;;24.80;43.30;;;;;;4965748;28;20026;-79
2023/08/25 15:42:26;;;;;;;0.00;0.00;;;24.70;43.40;;;;;;4967763;28;20413;-80
2023/08/25 15:44:52;;;;;;;0.00;0.00;;;24.70;43.90;;;;;;4964810;28;20028;-79
2023/08/25 15:47:17;;;;;;;0.00;0.00;;;24.70;43.90;;;;;;4967127;28;20030;-79
2023/08/25 15:49:43;;;;;;;0.00;0.00;;;24.60;43.50;;;;;;4966712;28;20541;-79
2023/08/25 15:52:09;;;;;;;0.00;0.00;;;24.60;44.00;;;;;;4962440;28;20035;-80
2023/08/25 15:54:34;;;;;;;0.00;0.00;;;24.50;44.30;;;;;;4967777;28;20389;-80
2023/08/25 15:57:00;;;;;;;0.05;0.00;;;24.30;44.50;;;;;;4967377;28;20126;-80
2023/08/25 15:59:27;;;;;;;0.00;0.00;;;24.30;44.70;;;;;;4969530;28;20030;-80
2023/08/25 16:01:53;;;;;;;0.00;0.00;;;24.30;44.80;;;;;;4967645;28;20031;-80
2023/08/25 16:04:18;;;;;;;0.00;0.00;;;24.10;45.00;;;;;;4973133;28;20543;-79
2023/08/25 16:06:44;;;;;;;0.00;0.00;;;24.00;45.20;;;;;;4967271;28;20028;-79
2023/08/25 16:09:10;;;;;;;0.00;0.00;;;23.90;45.20;;;;;;4965546;28;20532;-80
2023/08/25 16:11:35;;;;;;;0.00;0.00;;;23.90;45.70;;;;;;4970014;28;20515;-79
2023/08/25 16:14:02;;;;;;;0.00;0.00;;;23.80;46.30;;;;;;4972749;28;20074;-80
2023/08/25 16:16:28;;;;;;;0.10;0.10;;;23.80;46.10;;;;;;4957330;28;20114;-80
2023/08/25 16:18:54;;;;;;;0.00;0.00;;;23.80;46.30;;;;;;4968728;28;20058;-80
2023/08/25 16:21:20;;;;;;;0.00;0.00;;;23.70;46.20;;;;;;4956107;28;20047;-79
2023/08/25 16:23:45;;;;;;;0.03;0.00;;;23.60;47.00;;;;;;4964100;28;20391;-79
2023/08/25 16:26:11;;;;;;;0.00;0.00;;;23.60;46.90;;;;;;4960383;28;20109;-83
2023/08/25 16:28:39;;;;;;;0.00;0.00;;;23.60;47.00;;;;;;4968089;28;20447;-79
2023/08/25 16:31:07;;;;;;;0.00;0.00;;;23.50;47.00;;;;;;4964573;28;20054;-77
2023/08/25 16:33:36;;;;;;;0.00;0.00;;;23.50;47.10;;;;;;4975176;28;20027;-77
2023/08/25 16:36:07;;;;;;;0.00;0.00;;;23.30;47.10;;;;;;4962556;28;20043;-80
2023/08/25 16:38:34;;;;;;;0.00;0.00;;;23.20;46.80;;;;;;4957340;28;20027;-79
2023/08/25 16:41:00;;;;;;;0.00;0.00;;;23.10;47.30;;;;;;4968759;28;20057;-78
2023/08/25 16:43:25;;;;;;;0.00;0.00;;;23.00;47.80;;;;;;4957406;28;20103;-78
2023/08/25 16:45:51;;;;;;;0.00;0.00;;;22.90;48.20;;;;;;4958468;28;20034;-78
2023/08/25 16:48:18;;;;;;;0.00;0.00;;;22.80;48.70;;;;;;4969253;28;20062;-80
2023/08/25 16:50:45;;;;;;;0.00;0.00;;;22.80;49.10;;;;;;4964994;28;20458;-81
2023/08/25 16:53:12;;;;;;;0.00;0.00;;;22.60;50.70;;;;;;4961056;28;20027;-78
2023/08/25 16:55:39;;;;;;;0.00;0.00;;;22.50;52.80;;;;;;4961177;28;20063;-79
2023/08/25 16:58:05;;;;;;;0.00;0.00;;;22.40;53.30;;;;;;4962722;28;20032;-78
2023/08/25 17:00:31;;;;;;;0.00;0.00;;;22.30;53.40;;;;;;4970684;28;20027;-78
2023/08/25 17:02:57;;;;;;;0.00;0.00;;;22.30;53.30;;;;;;4960117;28;20034;-79
2023/08/25 17:05:25;;;;;;;0.05;0.00;;;22.40;53.70;;;;;;4961634;28;20029;-80
2023/08/25 17:07:51;;;;;;;0.00;0.00;;;22.40;53.50;;;;;;4960985;28;20470;-80
2023/08/25 17:10:19;;;;;;;0.00;0.00;;;22.30;53.80;;;;;;4964539;28;20045;-84
2023/08/25 17:12:48;;;;;;;0.00;0.00;;;22.40;54.30;;;;;;4961108;28;20406;-79
2023/08/25 17:15:15;;;;;;;0.00;0.00;;;22.50;54.00;;;;;;4966478;28;20066;-78
2023/08/25 17:17:41;;;;;;;0.10;0.00;;;22.60;54.00;;;;;;4968703;28;20024;-79